Time;durP1;ratioP1;P1;durP2;ratioP2;P2;SDS_P1;SDS_P2;PMS_P1;PMS_P2;Temp;Humidity;BMP_temperature;BMP_pressure;BME280_temperature;BME280_humidity;BME280_pressure;Samples;Min_cycle;Max_cycle;Signal;HPM_P1;HPM_P2
2021/03/22 00:00:30;;;;;;;2.07;1.10;;;5.00;99.70;;;;;;4952685;28;20693;-71
2021/03/22 00:02:58;;;;;;;2.13;1.17;;;5.00;99.60;;;;;;4953438;28;20261;-72
2021/03/22 00:05:24;;;;;;;1.77;1.03;;;4.90;99.50;;;;;;4949895;28;20287;-71
2021/03/22 00:07:51;;;;;;;2.13;1.20;;;5.10;99.50;;;;;;4967094;28;20222;-71
2021/03/22 00:10:20;;;;;;;2.97;1.33;;;5.10;99.30;;;;;;4950139;28;20267;-71
2021/03/22 00:12:47;;;;;;;3.93;1.60;;;5.10;99.30;;;;;;4968701;28;20196;-71
2021/03/22 00:15:15;;;;;;;3.77;1.90;;;5.00;99.10;;;;;;4971041;28;20227;-71
2021/03/22 00:17:42;;;;;;;3.50;1.30;;;5.00;99.00;;;;;;4967190;28;20200;-71
2021/03/22 00:20:11;;;;;;;1.67;1.40;;;5.00;99.10;;;;;;4959995;28;20300;-71
2021/03/22 00:22:38;;;;;;;19.67;3.87;;;5.00;99.10;;;;;;4965261;28;20200;-71
2021/03/22 00:25:05;;;;;;;35.13;5.53;;;5.10;99.20;;;;;;4971024;28;20325;-72
2021/03/22 00:27:32;;;;;;;60.93;8.70;;;5.00;99.10;;;;;;4964136;28;20300;-71
2021/03/22 00:29:58;;;;;;;41.43;7.67;;;5.10;99.10;;;;;;4966568;28;20278;-71
2021/03/22 00:32:25;;;;;;;14.40;3.43;;;5.10;99.30;;;;;;4958183;28;20196;-71
2021/03/22 00:34:52;;;;;;;5.73;1.60;;;5.10;98.90;;;;;;4965106;28;20597;-71
2021/03/22 00:37:21;;;;;;;2.47;1.70;;;5.10;99.10;;;;;;4960190;28;20208;-72
2021/03/22 00:39:48;;;;;;;2.97;1.37;;;5.10;98.90;;;;;;4959647;28;20279;-72
2021/03/22 00:42:14;;;;;;;3.43;1.40;;;5.10;98.80;;;;;;4956930;28;20193;-70
2021/03/22 00:44:40;;;;;;;2.07;1.23;;;5.10;98.90;;;;;;4961939;28;20695;-71
2021/03/22 00:47:07;;;;;;;2.63;1.30;;;5.10;98.80;;;;;;4955049;28;20194;-71
2021/03/22 00:49:34;;;;;;;3.37;1.43;;;5.10;98.80;;;;;;4961344;28;20290;-71
2021/03/22 00:52:01;;;;;;;1.97;1.40;;;5.20;98.80;;;;;;4951189;28;20205;-71
2021/03/22 00:54:28;;;;;;;3.50;1.20;;;5.20;99.00;;;;;;4964056;28;20217;-71
2021/03/22 00:56:54;;;;;;;5.67;2.13;;;5.20;98.70;;;;;;4961480;28;20197;-71
2021/03/22 00:59:21;;;;;;;4.47;1.80;;;5.10;98.50;;;;;;4957371;28;20197;-71
2021/03/22 01:01:47;;;;;;;2.67;1.60;;;5.20;98.60;;;;;;4950895;28;20225;-71
2021/03/22 01:04:14;;;;;;;2.93;1.53;;;5.20;98.80;;;;;;4960196;28;20198;-70
2021/03/22 01:06:40;;;;;;;2.50;1.30;;;5.20;98.30;;;;;;4959450;28;20288;-72
2021/03/22 01:09:08;;;;;;;2.07;1.17;;;5.20;98.30;;;;;;4966425;28;20697;-71
2021/03/22 01:11:35;;;;;;;4.47;1.50;;;5.20;98.40;;;;;;4949806;28;20291;-71
2021/03/22 01:14:02;;;;;;;1.20;1.00;;;5.20;98.30;;;;;;4968573;28;20209;-70
2021/03/22 01:16:32;;;;;;;3.80;1.40;;;5.10;98.20;;;;;;4969932;28;20195;-70
2021/03/22 01:19:01;;;;;;;1.83;0.90;;;5.10;98.00;;;;;;4958127;28;20206;-70
2021/03/22 01:21:31;;;;;;;3.10;1.23;;;5.20;98.00;;;;;;4965253;28;20666;-70
2021/03/22 01:23:58;;;;;;;1.20;0.90;;;5.20;98.00;;;;;;4959233;28;20341;-71
2021/03/22 01:26:26;;;;;;;1.63;1.07;;;5.10;97.90;;;;;;4964892;28;20231;-69
2021/03/22 01:28:54;;;;;;;1.00;0.90;;;5.20;97.90;;;;;;4946202;28;20265;-69
2021/03/22 01:31:21;;;;;;;1.00;0.73;;;5.20;97.90;;;;;;4950067;28;20215;-71
2021/03/22 01:33:50;;;;;;;1.73;1.00;;;5.30;97.90;;;;;;4950381;28;20224;-70
2021/03/22 01:36:20;;;;;;;1.07;0.80;;;5.20;97.60;;;;;;4944574;28;20575;-70
2021/03/22 01:38:47;;;;;;;0.80;0.60;;;5.20;97.70;;;;;;4946177;28;20208;-71
2021/03/22 01:41:35;;;;;;;1.33;0.90;;;5.20;97.60;;;;;;4957261;28;20212;-71
2021/03/22 01:44:23;;;;;;;0.77;0.60;;;5.20;97.50;;;;;;4949862;28;20272;-71
2021/03/22 01:46:52;;;;;;;1.20;0.90;;;5.20;97.50;;;;;;4943568;28;20221;-72
2021/03/22 01:49:21;;;;;;;0.87;0.70;;;5.30;97.40;;;;;;4950990;28;20377;-71
2021/03/22 01:51:48;;;;;;;2.70;0.93;;;5.30;97.30;;;;;;4940302;29;20193;-71
2021/03/22 01:54:15;;;;;;;4.33;0.97;;;5.30;97.10;;;;;;4950916;28;20217;-71
2021/03/22 01:56:52;;;;;;;1.60;1.07;;;5.30;97.00;;;;;;4936241;29;20229;-71
2021/03/22 01:59:26;;;;;;;2.90;1.30;;;5.30;96.70;;;;;;4945527;28;20219;-71
2021/03/22 02:01:56;;;;;;;2.40;1.20;;;5.20;96.50;;;;;;4938740;28;20260;-72
2021/03/22 02:04:25;;;;;;;2.17;1.43;;;5.20;96.20;;;;;;4938427;29;20284;-71
2021/03/22 02:06:52;;;;;;;1.70;1.13;;;5.20;96.30;;;;;;4958822;28;20235;-70
2021/03/22 02:09:18;;;;;;;1.40;1.07;;;5.30;96.40;;;;;;4968540;28;20278;-71
2021/03/22 02:11:45;;;;;;;1.53;1.10;;;5.30;96.40;;;;;;4969848;28;20286;-71
2021/03/22 02:14:12;;;;;;;3.40;1.03;;;5.20;96.00;;;;;;4968545;28;20221;-70
2021/03/22 02:16:56;;;;;;;2.67;1.30;;;5.30;96.00;;;;;;4969495;28;20275;-71
2021/03/22 02:20:10;;;;;;;1.20;1.07;;;5.30;96.00;;;;;;4966295;28;20351;-71
2021/03/22 02:23:09;;;;;;;1.30;1.00;;;5.30;96.00;;;;;;4961540;28;20200;-71
2021/03/22 02:25:40;;;;;;;1.43;1.00;;;5.30;95.90;;;;;;4965862;28;20209;-70
2021/03/22 02:28:52;;;;;;;3.17;1.37;;;5.30;95.90;;;;;;4967848;28;20299;-71
2021/03/22 02:32:00;;;;;;;1.37;1.13;;;5.20;95.90;;;;;;4913017;29;20316;-71
2021/03/22 02:34:39;;;;;;;47.03;8.07;;;5.20;95.80;;;;;;4928565;29;20209;-69
2021/03/22 02:37:21;;;;;;;19.17;3.77;;;5.30;95.90;;;;;;4922215;29;20297;-70
2021/03/22 02:40:01;;;;;;;8.27;2.57;;;5.30;96.00;;;;;;4925574;29;20226;-69
2021/03/22 02:42:29;;;;;;;3.10;1.40;;;5.30;95.90;;;;;;4925075;29;20213;-71
2021/03/22 02:44:55;;;;;;;0.63;0.63;;;5.30;96.00;;;;;;4923409;29;20307;-70
2021/03/22 02:47:26;;;;;;;1.03;0.90;;;5.40;96.00;;;;;;4920110;29;20286;-70
2021/03/22 02:49:59;;;;;;;1.53;0.97;;;5.40;95.90;;;;;;4909024;29;20662;-70
2021/03/22 02:52:56;;;;;;;1.40;0.60;;;5.30;95.80;;;;;;4906459;29;20271;-70
2021/03/22 02:55:31;;;;;;;1.30;0.80;;;5.40;95.80;;;;;;4905599;29;20223;-71
2021/03/22 02:58:00;;;;;;;3.40;0.90;;;5.40;95.70;;;;;;4898972;29;20207;-71
2021/03/22 03:00:30;;;;;;;0.90;0.80;;;5.50;95.90;;;;;;4899988;29;20195;-70
2021/03/22 03:03:01;;;;;;;0.60;0.60;;;5.50;95.50;;;;;;4894344;29;20520;-70
2021/03/22 03:05:32;;;;;;;1.10;0.90;;;5.40;95.40;;;;;;4908168;29;20214;-71
2021/03/22 03:08:01;;;;;;;1.10;0.90;;;5.50;95.70;;;;;;4928921;29;20206;-70
2021/03/22 03:10:27;;;;;;;1.43;1.10;;;5.50;95.30;;;;;;4918182;29;20288;-70
2021/03/22 03:12:54;;;;;;;1.33;0.80;;;5.50;95.30;;;;;;4924874;29;20228;-71
2021/03/22 03:15:21;;;;;;;1.47;0.80;;;5.50;95.30;;;;;;4928061;29;20304;-70
2021/03/22 03:17:49;;;;;;;2.33;0.90;;;5.50;95.20;;;;;;4923226;29;20732;-70
2021/03/22 03:20:18;;;;;;;1.83;0.80;;;5.50;95.20;;;;;;4925148;29;20293;-71
2021/03/22 03:22:46;;;;;;;0.67;0.60;;;5.50;95.20;;;;;;4919468;29;20206;-71
2021/03/22 03:25:13;;;;;;;1.30;0.80;;;5.60;95.20;;;;;;4924420;29;20208;-71
2021/03/22 03:27:40;;;;;;;2.10;0.93;;;5.60;95.20;;;;;;4920239;29;20571;-70
2021/03/22 03:30:09;;;;;;;1.17;0.87;;;5.60;95.10;;;;;;4950190;28;20243;-71
2021/03/22 03:32:36;;;;;;;1.13;0.80;;;5.60;95.10;;;;;;4955383;28;20278;-70
2021/03/22 03:35:03;;;;;;;1.87;0.73;;;5.60;95.20;;;;;;4960588;28;20775;-70
2021/03/22 03:37:30;;;;;;;1.97;0.80;;;5.60;95.20;;;;;;4955317;28;20239;-71
2021/03/22 03:39:57;;;;;;;1.13;0.93;;;5.60;95.20;;;;;;4957721;28;20204;-70
2021/03/22 03:42:23;;;;;;;1.13;0.73;;;5.60;95.20;;;;;;4945411;28;20205;-70
2021/03/22 03:44:50;;;;;;;1.27;0.90;;;5.60;95.20;;;;;;4959870;28;20287;-70
2021/03/22 03:47:16;;;;;;;0.90;0.90;;;5.50;95.50;;;;;;4948927;28;20276;-69
2021/03/22 03:49:43;;;;;;;1.77;0.80;;;5.50;95.20;;;;;;4954563;28;20216;-70
2021/03/22 03:52:09;;;;;;;1.83;1.07;;;5.60;95.30;;;;;;4944139;28;20224;-70
2021/03/22 03:54:36;;;;;;;1.47;1.07;;;5.50;95.30;;;;;;4957175;28;20398;-71
2021/03/22 03:57:04;;;;;;;1.20;0.80;;;5.50;95.40;;;;;;4943951;28;20193;-71
2021/03/22 03:59:31;;;;;;;2.13;1.10;;;5.50;95.50;;;;;;4946050;28;20205;-70
2021/03/22 04:01:57;;;;;;;1.00;0.70;;;5.50;95.90;;;;;;4938728;28;20289;-70
2021/03/22 04:04:24;;;;;;;1.00;0.80;;;5.50;95.60;;;;;;4942331;28;20269;-71
2021/03/22 04:06:50;;;;;;;0.93;0.90;;;5.50;95.70;;;;;;4952858;28;20196;-72
2021/03/22 04:09:19;;;;;;;2.33;0.90;;;5.50;95.80;;;;;;4971260;28;20192;-70
2021/03/22 04:11:47;;;;;;;1.53;0.90;;;5.50;95.80;;;;;;4969833;28;20554;-71
2021/03/22 04:14:18;;;;;;;1.87;0.97;;;5.50;95.90;;;;;;4970240;28;20205;-71
2021/03/22 04:16:44;;;;;;;0.77;0.73;;;5.40;96.00;;;;;;4963209;28;20198;-71
2021/03/22 04:19:11;;;;;;;1.40;0.83;;;5.50;96.10;;;;;;4960380;28;20220;-71
2021/03/22 04:21:38;;;;;;;1.70;0.90;;;5.50;96.10;;;;;;4957680;28;20235;-71
2021/03/22 04:24:05;;;;;;;2.53;1.30;;;5.50;96.20;;;;;;4964564;28;20190;-71
2021/03/22 04:26:32;;;;;;;1.43;0.80;;;5.50;96.30;;;;;;4970392;28;20248;-71
2021/03/22 04:28:58;;;;;;;0.87;0.70;;;5.50;96.50;;;;;;4963125;28;20253;-70
2021/03/22 04:31:28;;;;;;;2.00;0.70;;;5.50;96.60;;;;;;4964375;28;20295;-70
2021/03/22 04:33:58;;;;;;;0.70;0.67;;;5.50;96.70;;;;;;4958463;28;20293;-70
2021/03/22 04:36:28;;;;;;;1.40;0.90;;;5.40;96.80;;;;;;4962095;28;20593;-70
2021/03/22 04:38:54;;;;;;;1.13;0.80;;;5.40;97.00;;;;;;4946011;28;20221;-71
2021/03/22 04:41:22;;;;;;;1.33;0.90;;;5.40;97.10;;;;;;4960500;28;20200;-70
2021/03/22 04:43:49;;;;;;;1.20;0.83;;;5.40;97.30;;;;;;4954040;28;20603;-70
2021/03/22 04:46:16;;;;;;;0.77;0.53;;;5.40;97.40;;;;;;4959861;28;20211;-70
2021/03/22 04:48:43;;;;;;;0.60;0.60;;;5.40;97.60;;;;;;4951307;28;20292;-71
2021/03/22 04:51:10;;;;;;;0.73;0.73;;;5.40;97.60;;;;;;4953305;28;20205;-71
2021/03/22 04:53:36;;;;;;;0.70;0.70;;;5.40;97.80;;;;;;4955210;28;20224;-71
2021/03/22 04:56:07;;;;;;;2.13;0.70;;;5.40;97.90;;;;;;4953436;28;20251;-71
2021/03/22 04:58:33;;;;;;;0.90;0.90;;;5.30;98.00;;;;;;4964448;28;20220;-71
2021/03/22 05:01:00;;;;;;;0.70;0.70;;;5.30;98.20;;;;;;4955189;28;20201;-71
2021/03/22 05:03:26;;;;;;;1.33;0.83;;;5.30;98.30;;;;;;4947976;28;20217;-71
2021/03/22 05:05:54;;;;;;;2.03;0.93;;;5.30;98.40;;;;;;4953659;28;20288;-70
2021/03/22 05:08:22;;;;;;;1.57;0.80;;;5.20;98.60;;;;;;4971103;28;20197;-70
2021/03/22 05:10:52;;;;;;;1.40;0.93;;;5.20;98.80;;;;;;4970245;28;20665;-71
2021/03/22 05:13:20;;;;;;;2.27;0.70;;;5.20;98.90;;;;;;4970983;28;20203;-70
2021/03/22 05:15:46;;;;;;;1.47;0.90;;;5.10;99.00;;;;;;4968951;28;20227;-71
2021/03/22 05:18:14;;;;;;;1.43;0.80;;;5.10;99.20;;;;;;4969404;28;20189;-70
2021/03/22 05:20:43;;;;;;;1.60;1.00;;;5.10;99.30;;;;;;4954354;28;20197;-70
2021/03/22 05:23:13;;;;;;;1.20;0.90;;;5.10;99.50;;;;;;4966603;28;20231;-71
2021/03/22 05:25:39;;;;;;;1.20;0.93;;;5.10;99.70;;;;;;4963508;28;20966;-70
2021/03/22 05:28:08;;;;;;;1.60;1.00;;;5.10;99.90;;;;;;4965841;28;20200;-70
2021/03/22 05:30:36;;;;;;;1.53;1.10;;;5.00;99.90;;;;;;4961242;28;20233;-72
2021/03/22 05:33:05;;;;;;;0.80;0.60;;;5.10;99.90;;;;;;4958471;28;20668;-71
2021/03/22 05:35:33;;;;;;;1.90;0.90;;;5.10;99.90;;;;;;4958971;28;20300;-71
2021/03/22 05:38:00;;;;;;;1.20;0.73;;;5.10;99.90;;;;;;4962684;28;20192;-70
2021/03/22 05:40:31;;;;;;;2.50;1.00;;;5.10;99.90;;;;;;4951074;28;20205;-70
2021/03/22 05:43:06;;;;;;;1.20;1.00;;;5.10;99.90;;;;;;4945710;29;20224;-70
2021/03/22 05:45:40;;;;;;;1.03;0.93;;;5.10;99.90;;;;;;4945739;28;20197;-70
2021/03/22 05:48:22;;;;;;;2.37;0.87;;;5.10;99.90;;;;;;4951520;28;20195;-70
2021/03/22 05:51:04;;;;;;;0.77;0.60;;;5.10;99.90;;;;;;4950777;28;20193;-70
2021/03/22 05:53:41;;;;;;;2.23;0.90;;;5.10;99.90;;;;;;4945294;28;20208;-70
2021/03/22 05:56:15;;;;;;;1.03;0.80;;;5.10;99.90;;;;;;4940933;28;20676;-71
2021/03/22 05:58:57;;;;;;;1.33;1.00;;;5.10;99.90;;;;;;4943131;28;20205;-71
2021/03/22 06:01:35;;;;;;;1.60;0.90;;;5.10;99.90;;;;;;4941194;28;20858;-71
2021/03/22 06:04:06;;;;;;;2.77;0.90;;;5.10;99.90;;;;;;4942711;28;20193;-70
2021/03/22 06:06:37;;;;;;;2.60;1.10;;;5.20;99.90;;;;;;4945989;28;20222;-70
2021/03/22 06:09:16;;;;;;;1.07;0.93;;;5.20;99.90;;;;;;4968666;28;20203;-69
2021/03/22 06:11:51;;;;;;;1.53;1.00;;;5.20;99.90;;;;;;4960849;28;20209;-70
2021/03/22 06:14:26;;;;;;;3.40;1.10;;;5.30;99.90;;;;;;4953347;28;20231;-71
2021/03/22 06:17:00;;;;;;;0.93;0.80;;;5.30;99.90;;;;;;4966560;28;20212;-71
2021/03/22 06:19:28;;;;;;;3.77;1.27;;;5.50;99.90;;;;;;4962874;28;20400;-71
2021/03/22 06:21:55;;;;;;;2.00;0.90;;;5.40;99.90;;;;;;4964835;28;20585;-71
2021/03/22 06:24:26;;;;;;;1.17;0.87;;;5.50;99.90;;;;;;4959733;28;20224;-70
2021/03/22 06:26:55;;;;;;;2.97;1.17;;;5.50;99.90;;;;;;4962942;28;20263;-70
2021/03/22 06:29:23;;;;;;;2.60;1.10;;;5.60;99.90;;;;;;4956728;28;20256;-71
2021/03/22 06:31:53;;;;;;;4.70;1.30;;;5.80;99.90;;;;;;4952099;28;20637;-71
2021/03/22 06:34:28;;;;;;;4.10;1.60;;;5.90;99.90;;;;;;4955743;28;20308;-71
2021/03/22 06:36:55;;;;;;;5.13;1.33;;;6.20;99.90;;;;;;4944701;28;20391;-71
2021/03/22 06:39:21;;;;;;;2.07;1.10;;;6.40;99.90;;;;;;4943359;28;20205;-71
2021/03/22 06:41:50;;;;;;;1.30;1.00;;;6.70;99.90;;;;;;4951814;28;20216;-70
2021/03/22 06:44:20;;;;;;;3.20;1.23;;;7.10;99.90;;;;;;4953668;28;20206;-71
2021/03/22 06:46:58;;;;;;;1.97;1.13;;;7.30;99.90;;;;;;4948996;28;20202;-71
2021/03/22 06:49:28;;;;;;;4.40;1.17;;;7.70;99.90;;;;;;4955837;28;20233;-71
2021/03/22 06:52:00;;;;;;;1.70;1.23;;;8.00;99.90;;;;;;4941400;29;20201;-71
2021/03/22 06:54:32;;;;;;;1.90;1.10;;;8.30;99.90;;;;;;4947139;28;20208;-70
2021/03/22 06:57:05;;;;;;;1.93;0.97;;;8.60;99.30;;;;;;4945988;28;20247;-71
2021/03/22 06:59:33;;;;;;;2.43;0.90;;;8.80;98.20;;;;;;4955719;28;20201;-71
2021/03/22 07:02:17;;;;;;;1.77;1.10;;;9.10;97.50;;;;;;4943854;28;20204;-70
2021/03/22 07:04:44;;;;;;;2.20;1.50;;;9.40;96.70;;;;;;4934630;29;20281;-70
2021/03/22 07:07:17;;;;;;;3.73;1.33;;;9.70;95.80;;;;;;4923154;28;20201;-71
2021/03/22 07:09:47;;;;;;;1.53;0.93;;;10.00;94.00;;;;;;4936189;28;20284;-70
2021/03/22 07:12:24;;;;;;;4.63;1.07;;;10.40;92.50;;;;;;4947626;28;20211;-72
2021/03/22 07:14:51;;;;;;;4.63;1.40;;;11.00;91.60;;;;;;4939968;28;20202;-70
2021/03/22 07:17:21;;;;;;;4.33;1.37;;;11.70;88.90;;;;;;4939427;28;20191;-72
2021/03/22 07:20:08;;;;;;;3.13;1.00;;;12.40;83.20;;;;;;4951299;28;20194;-70
2021/03/22 07:22:35;;;;;;;3.07;1.60;;;13.40;79.20;;;;;;4955006;28;20202;-70
2021/03/22 07:25:06;;;;;;;4.60;1.23;;;14.30;72.10;;;;;;4943373;29;20741;-70
2021/03/22 07:27:39;;;;;;;9.03;1.53;;;15.00;68.10;;;;;;4943982;29;20320;-69
2021/03/22 07:30:26;;;;;;;2.13;1.20;;;15.90;65.80;;;;;;4942947;28;20268;-71
2021/03/22 07:33:08;;;;;;;3.70;1.03;;;16.90;60.50;;;;;;4942395;28;20293;-71
2021/03/22 07:36:04;;;;;;;1.73;1.00;;;17.60;58.00;;;;;;4938204;28;20616;-70
2021/03/22 07:38:58;;;;;;;3.20;0.90;;;18.50;55.50;;;;;;4944830;29;20211;-71
2021/03/22 07:41:35;;;;;;;2.63;0.80;;;19.30;52.60;;;;;;4942592;28;20214;-71
2021/03/22 07:44:18;;;;;;;3.53;1.23;;;20.20;51.70;;;;;;4947482;28;20341;-70
2021/03/22 07:46:58;;;;;;;3.13;1.40;;;21.30;50.80;;;;;;4945557;28;20330;-70
2021/03/22 07:49:33;;;;;;;2.80;1.30;;;22.10;47.30;;;;;;4949645;28;20199;-71
2021/03/22 07:52:30;;;;;;;2.43;1.60;;;22.50;45.30;;;;;;4941458;28;20204;-71
2021/03/22 07:55:23;;;;;;;1.27;0.90;;;22.80;42.80;;;;;;4940082;29;20210;-69
2021/03/22 07:57:57;;;;;;;5.73;1.43;;;23.30;43.50;;;;;;4847796;29;20322;-68
2021/03/22 08:00:33;;;;;;;2.80;1.27;;;24.20;42.50;;;;;;4866656;29;20768;-69
2021/03/22 08:03:23;;;;;;;6.20;1.50;;;25.00;41.40;;;;;;4858792;29;20238;-67
2021/03/22 08:06:19;;;;;;;6.63;1.47;;;25.50;39.40;;;;;;4859197;29;20392;-67
2021/03/22 08:09:03;;;;;;;2.70;1.37;;;25.70;37.40;;;;;;4790313;29;20221;-69
2021/03/22 08:11:38;;;;;;;2.13;1.60;;;26.20;36.90;;;;;;4792038;29;20714;-69
2021/03/22 08:14:13;;;;;;;3.08;1.40;;;26.40;35.70;;;;;;4796654;29;20241;-69
2021/03/22 08:17:03;;;;;;;8.02;1.95;;;26.30;35.30;;;;;;4798028;29;20203;-69
2021/03/22 08:19:38;;;;;;;2.97;1.65;;;26.00;34.80;;;;;;4788976;29;20229;-69
2021/03/22 08:22:13;;;;;;;4.30;1.88;;;26.20;35.20;;;;;;4792710;29;20210;-68
2021/03/22 08:24:53;;;;;;;4.05;1.50;;;26.50;34.80;;;;;;4776528;30;20202;-68
2021/03/22 08:27:22;;;;;;;3.83;1.70;;;26.50;34.10;;;;;;4790648;29;20206;-69
2021/03/22 08:29:53;;;;;;;8.30;1.77;;;26.40;33.90;;;;;;4793430;29;20239;-69
2021/03/22 08:32:39;;;;;;;1.77;1.38;;;26.70;34.10;;;;;;4796254;29;20305;-68
2021/03/22 08:35:14;;;;;;;2.03;1.58;;;27.00;34.00;;;;;;4871265;29;20231;-69
2021/03/22 08:37:45;;;;;;;2.38;1.23;;;27.30;33.50;;;;;;4883549;29;20271;-68
2021/03/22 08:40:16;;;;;;;5.07;1.35;;;27.30;33.10;;;;;;4890143;29;20212;-68
2021/03/22 08:42:47;;;;;;;3.60;0.93;;;27.30;32.70;;;;;;4881996;29;20640;-69
2021/03/22 08:45:20;;;;;;;3.35;1.25;;;27.30;32.60;;;;;;4904092;29;20214;-69
2021/03/22 08:47:53;;;;;;;3.92;0.93;;;27.40;32.70;;;;;;4942232;28;20197;-68
2021/03/22 08:50:24;;;;;;;2.45;0.93;;;27.40;32.00;;;;;;4935625;28;20599;-68
2021/03/22 08:53:02;;;;;;;1.92;1.00;;;27.20;31.70;;;;;;4946074;28;20536;-68
2021/03/22 08:55:46;;;;;;;5.55;1.38;;;27.00;32.00;;;;;;4941468;28;20277;-68
2021/03/22 08:58:23;;;;;;;5.65;1.10;;;27.30;32.70;;;;;;4952818;28;20208;-69
2021/03/22 09:00:52;;;;;;;2.35;1.10;;;28.10;32.00;;;;;;4946749;28;20215;-70
2021/03/22 09:03:31;;;;;;;7.18;1.35;;;28.70;31.80;;;;;;4942966;28;20302;-69
2021/03/22 09:06:14;;;;;;;7.47;1.02;;;29.00;30.30;;;;;;4935806;28;20284;-68
2021/03/22 09:08:42;;;;;;;3.60;1.20;;;29.00;29.40;;;;;;4936578;28;20516;-69
2021/03/22 09:11:24;;;;;;;2.30;1.20;;;29.00;29.50;;;;;;4944129;28;20249;-68
2021/03/22 09:13:53;;;;;;;2.65;1.23;;;29.10;29.10;;;;;;4944351;28;20220;-68
2021/03/22 09:16:39;;;;;;;2.65;0.90;;;29.20;29.00;;;;;;4951903;28;20694;-70
2021/03/22 09:19:37;;;;;;;4.47;1.20;;;29.40;28.90;;;;;;4947995;28;20247;-69
2021/03/22 09:22:42;;;;;;;2.15;1.23;;;29.80;28.60;;;;;;4934057;29;20203;-69
2021/03/22 09:25:12;;;;;;;1.83;1.00;;;30.30;28.40;;;;;;4948910;28;20189;-68
2021/03/22 09:27:39;;;;;;;3.03;0.90;;;30.30;26.80;;;;;;4942516;28;20738;-68
2021/03/22 09:30:39;;;;;;;3.13;1.27;;;30.30;26.70;;;;;;4944774;28;20280;-69
2021/03/22 09:33:06;;;;;;;2.70;1.13;;;30.20;26.90;;;;;;4875849;29;20261;-68
2021/03/22 09:36:12;;;;;;;1.50;0.70;;;30.10;26.20;;;;;;4883591;29;20318;-68
2021/03/22 09:38:46;;;;;;;4.30;1.23;;;29.90;26.60;;;;;;4879685;29;20210;-70
2021/03/22 09:41:13;;;;;;;3.03;1.30;;;30.00;26.10;;;;;;4883432;29;20218;-69
2021/03/22 09:43:42;;;;;;;2.30;1.13;;;30.00;26.20;;;;;;4878984;29;20740;-70
2021/03/22 09:46:31;;;;;;;6.28;1.27;;;29.80;26.20;;;;;;4880832;29;20777;-71
2021/03/22 09:49:28;;;;;;;7.90;1.30;;;30.30;26.10;;;;;;4887348;29;20218;-68
2021/03/22 09:52:17;;;;;;;6.40;1.25;;;30.70;25.60;;;;;;4886590;29;20208;-68
2021/03/22 09:54:44;;;;;;;1.83;1.15;;;31.20;25.60;;;;;;4881731;29;20216;-69
2021/03/22 09:57:36;;;;;;;5.63;1.30;;;31.50;24.90;;;;;;4887328;29;20343;-69
2021/03/22 10:00:25;;;;;;;2.15;1.25;;;31.30;24.70;;;;;;4887842;29;20299;-69
2021/03/22 10:02:54;;;;;;;5.25;1.10;;;31.20;25.00;;;;;;4886878;29;20203;-69
2021/03/22 10:05:24;;;;;;;4.00;1.60;;;32.10;25.30;;;;;;4887056;29;20653;-70
2021/03/22 10:07:59;;;;;;;9.00;1.40;;;32.40;24.80;;;;;;4923524;28;20672;-70
2021/03/22 10:10:31;;;;;;;4.43;1.60;;;32.40;24.60;;;;;;4949220;28;20208;-69
2021/03/22 10:13:02;;;;;;;3.53;1.45;;;32.20;23.70;;;;;;4951642;28;20660;-69
2021/03/22 10:15:31;;;;;;;1.45;1.02;;;31.70;23.90;;;;;;4937610;28;20208;-68
2021/03/22 10:18:10;;;;;;;1.45;1.30;;;31.60;24.30;;;;;;4944674;28;20647;-69
2021/03/22 10:20:41;;;;;;;1.20;1.10;;;31.70;24.30;;;;;;4942007;28;20197;-69
2021/03/22 10:23:21;;;;;;;1.85;1.55;;;31.80;24.60;;;;;;4958622;28;20196;-69
2021/03/22 10:25:50;;;;;;;2.80;1.15;;;31.90;24.50;;;;;;4945211;28;20268;-68
2021/03/22 10:28:20;;;;;;;1.50;1.25;;;32.20;24.60;;;;;;4949010;28;20593;-68
2021/03/22 10:30:56;;;;;;;1.85;1.02;;;32.60;24.70;;;;;;4945045;28;20697;-69
2021/03/22 10:33:23;;;;;;;1.70;1.08;;;33.10;25.00;;;;;;4935091;29;20285;-67
2021/03/22 10:35:51;;;;;;;1.02;0.80;;;33.60;24.40;;;;;;4937300;28;20735;-67
2021/03/22 10:38:21;;;;;;;4.03;1.00;;;33.80;24.00;;;;;;4954557;28;20192;-68
2021/03/22 10:40:49;;;;;;;2.47;1.20;;;33.90;24.10;;;;;;4951141;28;20233;-67
2021/03/22 10:43:29;;;;;;;1.88;1.40;;;34.20;24.50;;;;;;4934780;28;20822;-70
2021/03/22 10:45:56;;;;;;;4.10;1.20;;;34.30;23.70;;;;;;4941540;28;20720;-70
2021/03/22 10:48:32;;;;;;;35.35;7.18;;;34.00;23.60;;;;;;4942468;28;20200;-71
2021/03/22 10:51:01;;;;;;;13.25;3.35;;;33.80;23.60;;;;;;4948343;28;20241;-70
2021/03/22 10:53:27;;;;;;;2.75;1.52;;;33.60;23.50;;;;;;4959177;28;20197;-71
2021/03/22 10:55:57;;;;;;;1.52;1.23;;;33.40;23.30;;;;;;4952625;28;20312;-69
2021/03/22 10:58:27;;;;;;;9.73;1.83;;;32.90;23.30;;;;;;4953669;28;20640;-71
2021/03/22 11:00:59;;;;;;;5.68;1.60;;;32.40;23.10;;;;;;4953122;28;20228;-73
2021/03/22 11:03:26;;;;;;;6.05;1.60;;;32.10;23.40;;;;;;4943223;28;20214;-72
2021/03/22 11:05:55;;;;;;;17.27;3.33;;;31.70;23.70;;;;;;4949193;28;20341;-71
2021/03/22 11:08:24;;;;;;;14.68;2.65;;;31.50;23.80;;;;;;4944420;29;20201;-70
2021/03/22 11:11:00;;;;;;;5.70;1.10;;;31.10;24.10;;;;;;4938479;28;20769;-71
2021/03/22 11:13:29;;;;;;;11.73;1.65;;;30.60;24.10;;;;;;4939924;28;20272;-71
2021/03/22 11:15:56;;;;;;;3.90;1.27;;;30.40;24.30;;;;;;4943265;28;20713;-70
2021/03/22 11:18:23;;;;;;;4.38;1.48;;;30.30;24.50;;;;;;4948350;28;20229;-70
2021/03/22 11:20:53;;;;;;;7.30;1.58;;;30.00;24.10;;;;;;4939940;28;20610;-71
2021/03/22 11:23:26;;;;;;;3.88;1.30;;;29.70;24.10;;;;;;4939169;28;20228;-71
2021/03/22 11:25:54;;;;;;;8.25;1.65;;;29.20;24.50;;;;;;4944151;28;20198;-72
2021/03/22 11:28:28;;;;;;;7.53;1.70;;;28.70;24.70;;;;;;4945556;28;20216;-71
2021/03/22 11:31:02;;;;;;;8.18;1.50;;;27.90;24.70;;;;;;4943306;28;20280;-71
2021/03/22 11:33:36;;;;;;;10.65;1.83;;;27.40;25.00;;;;;;4952239;28;20275;-70
2021/03/22 11:36:09;;;;;;;6.88;1.85;;;27.20;25.30;;;;;;4956150;28;20221;-73
2021/03/22 11:38:43;;;;;;;6.55;1.70;;;26.90;25.40;;;;;;4954572;28;20197;-71
2021/03/22 11:41:25;;;;;;;14.38;2.03;;;26.70;25.70;;;;;;4952913;28;20295;-71
2021/03/22 11:44:03;;;;;;;11.73;2.00;;;26.20;25.70;;;;;;4945334;28;20654;-71
2021/03/22 11:46:30;;;;;;;3.90;1.35;;;25.60;25.90;;;;;;4947685;28;20735;-71
2021/03/22 11:48:57;;;;;;;5.07;1.20;;;25.00;26.20;;;;;;4947465;28;20268;-72
2021/03/22 11:51:24;;;;;;;3.78;1.70;;;24.60;26.40;;;;;;4947468;28;20201;-72
2021/03/22 11:54:02;;;;;;;4.25;1.30;;;24.30;26.60;;;;;;4949330;28;20459;-72
2021/03/22 11:56:31;;;;;;;4.10;1.38;;;23.80;26.60;;;;;;4957086;28;20228;-71
2021/03/22 11:59:16;;;;;;;1.75;1.55;;;23.40;26.70;;;;;;4950376;28;20208;-72
2021/03/22 12:01:43;;;;;;;3.22;1.20;;;23.00;27.00;;;;;;4943102;28;20205;-72
2021/03/22 12:04:16;;;;;;;6.25;1.30;;;22.50;27.10;;;;;;4951394;28;20287;-71
2021/03/22 12:06:56;;;;;;;3.47;1.10;;;22.10;27.40;;;;;;4950378;28;20538;-71
2021/03/22 12:09:24;;;;;;;4.43;1.13;;;21.50;27.20;;;;;;4938335;28;20392;-72
2021/03/22 12:11:52;;;;;;;4.43;1.38;;;20.90;27.20;;;;;;4946397;28;20700;-71
2021/03/22 12:14:19;;;;;;;5.03;1.10;;;20.30;27.10;;;;;;4940821;28;20251;-70
2021/03/22 12:16:48;;;;;;;5.97;1.35;;;19.90;27.40;;;;;;4955587;28;20666;-71
2021/03/22 12:19:20;;;;;;;5.78;1.48;;;19.50;27.80;;;;;;4938255;28;20296;-72
2021/03/22 12:21:46;;;;;;;1.75;1.10;;;19.20;28.30;;;;;;4939969;28;20267;-70
2021/03/22 12:24:14;;;;;;;1.45;0.90;;;18.90;28.60;;;;;;4945989;28;20276;-71
2021/03/22 12:26:41;;;;;;;11.23;1.30;;;18.60;28.80;;;;;;4936306;28;20566;-70
2021/03/22 12:29:08;;;;;;;1.80;0.90;;;18.40;28.90;;;;;;4940208;29;20268;-71
2021/03/22 12:31:40;;;;;;;3.65;1.13;;;18.00;28.90;;;;;;4942402;28;20212;-72
2021/03/22 12:34:09;;;;;;;5.27;1.10;;;17.50;29.00;;;;;;4953048;28;20193;-71
2021/03/22 12:36:36;;;;;;;6.63;1.17;;;17.10;29.30;;;;;;4940276;28;20240;-72
2021/03/22 12:39:03;;;;;;;4.67;0.97;;;16.80;29.50;;;;;;4942989;28;20205;-71
2021/03/22 12:41:33;;;;;;;5.97;1.13;;;16.40;29.50;;;;;;4945066;28;20295;-70
2021/03/22 12:44:00;;;;;;;7.33;1.00;;;16.00;29.70;;;;;;4943807;28;20585;-71
2021/03/22 12:46:27;;;;;;;6.53;1.17;;;15.80;30.10;;;;;;4939461;28;20217;-71
2021/03/22 12:48:55;;;;;;;5.73;1.37;;;15.60;31.30;;;;;;4953038;28;20279;-72
2021/03/22 12:51:21;;;;;;;9.00;1.30;;;15.40;32.20;;;;;;4942975;28;20684;-71
2021/03/22 12:53:48;;;;;;;4.90;1.00;;;15.10;32.60;;;;;;4947114;28;20285;-72
2021/03/22 12:56:17;;;;;;;11.50;1.03;;;15.00;32.90;;;;;;4953982;28;20303;-71
2021/03/22 12:58:44;;;;;;;10.63;1.83;;;14.90;33.10;;;;;;4950227;28;20210;-71
2021/03/22 13:01:15;;;;;;;8.50;1.10;;;14.80;33.40;;;;;;4944402;28;20199;-72
2021/03/22 13:03:42;;;;;;;3.67;0.80;;;14.80;33.70;;;;;;4938700;28;20200;-69
2021/03/22 13:06:09;;;;;;;6.30;1.50;;;14.80;34.00;;;;;;4946394;28;20195;-71
2021/03/22 13:08:36;;;;;;;13.23;1.37;;;14.70;34.00;;;;;;4945646;28;20359;-71
2021/03/22 13:11:04;;;;;;;4.80;1.30;;;14.60;33.90;;;;;;4945653;28;20230;-69
2021/03/22 13:13:31;;;;;;;11.57;1.20;;;14.70;33.90;;;;;;4944217;28;20281;-70
2021/03/22 13:15:58;;;;;;;6.13;1.67;;;14.50;33.70;;;;;;4949344;28;20209;-70
2021/03/22 13:18:27;;;;;;;5.37;1.27;;;14.40;33.30;;;;;;4951790;28;21016;-71